Latest Coastal Weather Observations for Lucinda

IDQ60701

Issued at 3:21 pm EST Wednesday 1 June 2016 (issued every 10 minutes, with the page automatically refreshed every 10 minutes)

About coastal observations | Map of coastal stations | Coastal observations for QLD | Marine services | Other Formats
Station Details ID: 032141 Name: LUCINDA POINT Lat: -18.52 Lon: 146.39 Height: 10.0 m
Data from the previous 72 hours. | See also: Recent months at Lucinda
Date/Time
EST
Temp

°C
Wind Pressure Rain
since 9am
mm
Weather Cloud Vis
km
Sea
Height
m
Swell
Dir
 
Speed
knots
Gust
knots
hPa Trend Height
m
Period
s
Dir
01/03:00pm 26.0 SSE 7 12 1015.6 - 0.0 - - - - - - -
01/02:30pm 25.6 ESE 10 15 1015.8 - 0.0 - - - - - - -
01/02:00pm 25.4 SE 9 14 1016.1 - 0.0 - - - - - - -
01/01:30pm 24.2 S 6 8 1016.5 - 0.0 - - - - - - -
01/01:00pm 23.4 SSW 9 11 1016.9 - 0.0 - - - - - - -
01/12:30pm 23.9 S 8 11 1017.4 - 0.0 - - - - - - -
01/12:00pm 23.6 SSE 10 15 1017.8 - 0.0 - - - - - - -
01/11:30am 23.4 S 11 15 1017.9 - 0.0 - - - - - - -
01/11:00am 23.2 S 13 15 1018.4 - 0.0 - - - - - - -
01/10:30am 23.8 S 11 15 1018.5 - 0.0 - - - - - - -
01/10:00am 24.0 S 9 13 1018.5 - 0.0 - - - - - - -
01/09:30am 24.3 S 9 14 1018.5 - 0.0 - - - - - - -
01/09:00am 24.6 S 10 16 1018.3 - 0.0 - - - - - - -
01/08:30am 24.6 SE 9 13 1018.3 - 0.0 - - - - - - -
01/08:00am 24.7 SE 8 15 1018.0 - 0.0 - - - - - - -
01/07:30am 25.4 SE 13 21 1017.5 - 0.0 - - - - - - -
01/07:00am 25.1 SE 9 16 1017.5 - 0.0 - - - - - - -
01/06:30am 23.9 SSW 11 12 1017.4 - 0.0 - - - - - - -
01/06:00am 23.6 SSW 12 14 1017.2 - 0.0 - - - - - - -
01/05:30am 23.0 S 14 16 1016.9 - 0.0 - - - - - - -
01/05:25am 23.0 S 15 19 1016.8 - 0.0 - - - - - - -
01/05:00am 24.2 S 7 9 1016.4 - 0.0 - - - - - - -
01/04:30am 24.1 SE 14 23 1016.1 - 0.0 - - - - - - -
01/04:00am 24.7 SE 9 16 1016.1 - 0.0 - - - - - - -
01/03:30am 25.0 SE 13 21 1016.2 - 0.0 - - - - - - -
01/03:00am 25.1 SE 15 22 1016.2 - 0.0 - - - - - - -
01/02:30am 25.1 SE 12 21 1016.5 - 0.0 - - - - - - -
01/02:00am 25.0 SE 14 20 1016.5 - 0.0 - - - - - - -
01/01:30am 25.1 SE 12 19 1017.3 - 0.0 - - - - - - -
01/01:00am 25.0 SE 13 20 1017.5 - 0.0 - - - - - - -
01/12:30am 25.1 SE 13 20 1017.7 - 0.0 - - - - - - -
01/12:00am 25.2 SE 13 20 1017.9 - 0.0 - - - - - - -
 
Date/Time
EST
Temp

°C
Wind Pressure Rain
since 9am
mm
Weather Cloud Vis
km
Sea
Height
m
Swell
Dir
 
Speed
knots
Gust
knots
hPa Trend Height
m
Period
s
Dir
31/11:30pm 25.1 SE 12 19 1018.3 - 0.0 - - - - - - -
31/11:00pm 25.1 SE 12 19 1018.6 - 0.0 - - - - - - -
31/10:30pm 25.1 SE 13 22 1018.9 - 0.0 - - - - - - -
31/10:00pm 25.2 ESE 11 20 1019.2 - 0.0 - - - - - - -
31/09:30pm 25.1 SE 11 19 1019.1 - 0.0 - - - - - - -
31/09:00pm 25.2 SE 12 21 1019.0 - 0.0 - - - - - - -
31/08:30pm 25.2 ESE 13 22 1018.8 - 0.0 - - - - - - -
31/08:00pm 25.2 ESE 14 22 1018.7 - 0.0 - - - - - - -
31/07:30pm 25.2 SE 12 21 1018.6 - 0.0 - - - - - - -
31/07:00pm 25.3 SE 12 19 1018.4 - 0.0 - - - - - - -
31/06:30pm 25.2 ESE 12 21 1018.0 - 0.0 - - - - - - -
31/06:00pm 25.3 ESE 13 21 1017.9 - 0.0 - - - - - - -
31/05:30pm 25.3 ESE 13 23 1017.8 - 0.0 - - - - - - -
31/05:00pm 25.2 SE 13 21 1017.6 - 0.0 - - - - - - -
31/04:30pm 25.2 SE 13 21 1017.5 - 0.0 - - - - - - -
31/04:00pm 25.3 SE 16 23 1017.2 - 0.0 - - - - - - -
31/03:41pm 25.5 SE 16 26 1016.9 - 0.0 - - - - - - -
31/03:30pm 25.6 SE 15 23 1016.9 - 0.0 - - - - - - -
31/03:00pm 25.7 ESE 14 24 1016.9 - 0.0 - - - - - - -
31/02:30pm 25.8 ESE 15 24 1016.9 - 0.0 - - - - - - -
31/02:00pm 25.7 SE 15 24 1017.0 - 0.0 - - - - - - -
31/01:30pm 25.9 SE 16 27 1017.4 - 0.0 - - - - - - -
31/01:00pm 25.7 SE 17 28 1017.7 - 0.0 - - - - - - -
31/12:30pm 25.5 SE 17 27 1018.0 - 0.0 - - - - - - -
31/12:12pm 25.6 SE 15 26 1018.3 - 0.0 - - - - - - -
31/12:00pm 25.8 SE 16 23 1018.6 - 0.0 - - - - - - -
31/11:30am 26.1 SE 12 20 1019.1 - 0.0 - - - - - - -
31/11:00am 26.2 ESE 14 24 1019.3 - 0.0 - - - - - - -
31/10:50am 26.0 ESE 15 25 1019.3 - 0.0 - - - - - - -
31/10:30am 26.3 ESE 12 18 1019.3 - 0.0 - - - - - - -
31/10:00am 25.7 SE 12 21 1019.5 - 0.0 - - - - - - -
31/09:30am 24.9 SE 14 25 1019.6 - 0.0 - - - - - - -
31/09:25am 24.5 SE 15 25 1019.6 - 0.0 - - - - - - -
31/09:00am 24.5 SE 14 24 1019.4 - 4.8 - - - - - - -
31/08:30am 25.0 ESE 12 20 1019.2 - 4.8 - - - - - - -
31/08:00am 24.7 SE 12 19 1018.9 - 4.8 - - - - - - -
31/07:30am 24.9 ESE 14 21 1018.4 - 4.8 - - - - - - -
31/07:00am 24.7 SE 11 20 1018.3 - 4.8 - - - - - - -
31/06:30am 24.9 SE 15 22 1018.1 - 4.8 - - - - - - -
31/06:00am 25.6 SE 13 19 1017.8 - 4.8 - - - - - - -
31/05:30am 25.5 SE 11 18 1017.5 - 4.8 - - - - - - -
31/05:00am 25.6 SE 12 20 1017.3 - 4.8 - - - - - - -
31/04:30am 25.5 ESE 11 18 1017.2 - 4.8 - - - - - - -
31/04:00am 25.3 ESE 12 20 1017.3 - 4.8 - - - - - - -
31/03:30am 25.6 ESE 11 20 1017.2 - 4.8 - - - - - - -
31/03:00am 25.6 ESE 11 19 1017.2 - 4.8 - - - - - - -
31/02:30am 25.7 ESE 13 23 1017.2 - 4.8 - - - - - - -
31/02:00am 25.6 ESE 13 23 1017.4 - 4.8 - - - - - - -
31/01:30am 25.7 ESE 14 23 1017.6 - 4.8 - - - - - - -
31/01:00am 25.7 ESE 13 19 1017.7 - 4.8 - - - - - - -
31/12:30am 25.7 ESE 11 19 1017.8 - 4.8 - - - - - - -
31/12:00am 25.7 SE 12 21 1017.9 - 4.8 - - - - - - -
 
Date/Time
EST
Temp

°C
Wind Pressure Rain
since 9am
mm
Weather Cloud Vis
km
Sea
Height
m
Swell
Dir
 
Speed
knots
Gust
knots
hPa Trend Height
m
Period
s
Dir
30/11:30pm 25.7 ESE 11 18 1017.9 - 4.8 - - - - - - -
30/11:00pm 25.7 SE 11 20 1018.1 - 4.8 - - - - - - -
30/10:30pm 25.8 ESE 12 20 1018.2 - 4.8 - - - - - - -
30/10:00pm 25.8 SE 10 17 1018.3 - 4.8 - - - - - - -
30/09:30pm 25.7 SE 10 19 1018.2 - 4.8 - - - - - - -
30/09:00pm 25.7 SE 10 17 1018.2 - 4.8 - - - - - - -
30/08:30pm 24.8 SSW 5 8 1018.1 - 4.8 - - - - - - -
30/08:00pm 24.6 S 6 7 1017.9 - 4.8 - - - - - - -
30/07:30pm 24.5 SSW 5 6 1017.9 - 4.8 - - - - - - -
30/07:00pm 24.5 SSW 6 7 1017.8 - 4.8 - - - - - - -
30/06:30pm 24.4 SSW 6 7 1017.6 - 4.8 - - - - - - -
30/06:00pm 24.3 S 6 8 1017.3 - 4.8 - - - - - - -
30/05:30pm 24.2 S 8 9 1017.3 - 4.8 - - - - - - -
30/05:00pm 24.4 S 7 9 1017.2 - 4.8 - - - - - - -
30/04:30pm 24.3 S 7 9 1016.9 - 4.8 - - - - - - -
30/04:00pm 24.3 S 7 8 1016.7 - 4.8 - - - - - - -
30/03:30pm 24.3 S 7 8 1016.7 - 4.8 - - - - - - -
30/03:00pm 24.3 S 7 8 1016.6 - 4.8 - - - - - - -
30/02:30pm 24.4 S 7 9 1016.7 - 4.8 - - - - - - -
30/02:00pm 24.1 SSW 7 9 1016.9 - 4.8 - - - - - - -
30/01:30pm 24.1 S 8 10 1017.2 - 4.8 - - - - - - -
30/01:00pm 24.1 S 8 9 1017.5 - 4.8 - - - - - - -
30/12:30pm 23.9 SSW 7 8 1017.9 - 4.8 - - - - - - -
30/12:00pm 23.6 S 8 9 1018.5 - 4.8 - - - - - - -
30/11:30am 23.0 SSW 6 7 1018.8 - 4.8 - - - - - - -
30/11:00am 22.8 SSW 4 6 1019.3 - 4.8 - - - - - - -
30/10:30am 22.4 NW 6 8 1019.6 - 4.8 - - - - - - -
30/10:00am 22.2 NNW 6 10 1020.0 - 4.2 - - - - - - -
30/09:30am 22.7 E 12 17 1019.7 - 2.2 - - - - - - -
30/09:23am 22.7 E 12 17 1019.6 - 0.8 - - - - - - -
30/09:00am 23.6 ENE 5 7 1019.4 - 48.6 - - - - - - -
30/08:30am 23.3 N 1 4 1018.9 - 48.6 - - - - - - -
30/08:00am 22.6 NNW 9 11 1018.2 - 48.6 - - - - - - -
30/07:30am 22.4 N 16 20 1018.2 - 48.6 - - - - - - -
30/07:00am 22.8 N 11 16 1017.8 - 48.6 - - - - - - -
30/06:30am 22.7 WNW 3 6 1017.3 - 48.6 - - - - - - -
30/06:00am 22.5 WSW 9 12 1017.1 - 48.6 Rain - - - - - -
30/05:30am 22.5 E 5 9 1017.4 - 47.6 - - - - - - -
30/05:17am 22.3 N 19 28 1017.2 - 42.6 - - - - - - -
30/05:13am 22.5 NNW 18 28 1016.6 - 37.6 - - - - - - -
30/05:00am 22.3 NW 13 19 1016.4 - 33.8 - - - - - - -
30/04:30am 22.3 NW 10 14 1016.5 - 26.4 - - - - - - -
30/04:00am 22.1 NNW 19 24 1016.1 - 23.4 - - - - - - -
30/03:43am 21.5 N 20 25 1016.2 - 16.4 - - - - - - -
30/03:30am 23.0 ENE 13 24 1016.0 - 10.0 - - - - - - -
30/03:29am 23.2 E 12 24 1015.9 - 10.0 - - - - - - -
30/03:28am 23.5 E 11 24 1015.9 - 9.8 - - - - - - -
30/03:00am 24.8 SE 9 13 1016.0 - 6.2 Rain - - - - - -
30/02:42am 24.5 N 19 26 1015.9 - 4.8 - - - - - - -
30/02:35am 23.5 NE 16 24 1015.8 - 0.8 - - - - - - -
30/02:30am 25.6 E 15 20 1016.0 - 0.4 - - - - - - -
30/02:00am 25.3 ENE 12 15 1015.9 - 0.4 - - - - - - -
30/01:30am 25.5 ESE 13 18 1016.2 - 0.0 - - - - - - -
30/01:00am 25.4 ESE 15 18 1016.3 - 0.0 - - - - - - -
30/12:30am 25.7 ESE 14 18 1016.3 - 0.0 - - - - - - -
30/12:00am 25.6 ESE 14 18 1016.6 - 0.0 - - - - - - -
 
Date/Time
EST
Temp

°C
Wind Pressure Rain
since 9am
mm
Weather Cloud Vis
km
Sea
Height
m
Swell
Dir
 
Speed
knots
Gust
knots
hPa Trend Height
m
Period
s
Dir
29/11:30pm 25.7 ESE 11 16 1016.8 - 0.0 - - - - - - -
29/11:00pm 25.6 ESE 12 17 1016.8 - 0.0 - - - - - - -
29/10:30pm 25.6 ESE 13 18 1016.9 - 0.0 - - - - - - -
29/10:00pm 25.7 ESE 10 15 1017.1 - 0.0 - - - - - - -
29/09:30pm 25.7 ESE 7 12 1017.4 - 0.0 - - - - - - -
29/09:00pm 25.6 ESE 8 13 1017.1 - 0.0 - - - - - - -
29/08:30pm 25.6 SE 9 16 1016.8 - 0.0 - - - - - - -
29/08:00pm 25.5 SE 11 18 1016.5 - 0.0 - - - - - - -
29/07:30pm 25.6 SE 11 18 1016.2 - 0.0 - - - - - - -
29/07:00pm 25.5 SE 9 14 1016.1 - 0.0 - - - - - - -
29/06:30pm 25.5 SE 9 15 1015.9 - 0.0 - - - - - - -
29/06:00pm 25.3 SE 9 13 1015.5 - 0.0 - - - - - - -
29/05:30pm 25.3 SE 8 13 1015.2 - 0.0 - - - - - - -
29/05:00pm 25.5 SE 7 12 1015.3 - 0.0 - - - - - - -
29/04:30pm 26.0 SE 7 13 1015.1 - 0.0 - - - - - - -
29/04:00pm 25.9 SE 7 11 1015.1 - 0.0 - - - - - - -
29/03:30pm 26.2 SE 8 13 1014.9 - 0.0 - - - - - - -

Other Formats:

Comma delimited format used in spreadsheet applications
http://www.bom.gov.au/fwo/IDQ60701/IDQ60701.94295.axf

JavaScript Object Notation format (JSON) in row-major order
http://www.bom.gov.au/fwo/IDQ60701/IDQ60701.94295.json